地図

経路データ

SID SEASON NUMBER BASIN SUBBASIN NAME ISO_TIME NATURE LAT LON WMO_WIND WMO_PRES WMO_AGENCY TRACK_TYPE DIST2LAND LANDFALL IFLAG USA_AGENCY USA_ATCF_ID USA_LAT USA_LON USA_RECORD USA_STATUS USA_WIND USA_PRES USA_SSHS USA_R34_NE USA_R34_SE USA_R34_SW USA_R34_NW USA_R50_NE USA_R50_SE USA_R50_SW USA_R50_NW USA_R64_NE USA_R64_SE USA_R64_SW USA_R64_NW USA_POCI USA_ROCI USA_RMW USA_EYE TOKYO_LAT TOKYO_LON TOKYO_GRADE TOKYO_WIND TOKYO_PRES TOKYO_R50_DIR TOKYO_R50_LONG TOKYO_R50_SHORT TOKYO_R30_DIR TOKYO_R30_LONG TOKYO_R30_SHORT TOKYO_LAND CMA_LAT CMA_LON CMA_CAT CMA_WIND CMA_PRES HKO_LAT HKO_LON HKO_CAT HKO_WIND HKO_PRES NEWDELHI_LAT NEWDELHI_LON NEWDELHI_GRADE NEWDELHI_WIND NEWDELHI_PRES NEWDELHI_CI NEWDELHI_DP NEWDELHI_POCI REUNION_LAT REUNION_LON REUNION_TYPE REUNION_WIND REUNION_PRES REUNION_TNUM REUNION_CI REUNION_RMW REUNION_R34_NE REUNION_R34_SE REUNION_R34_SW REUNION_R34_NW REUNION_R50_NE REUNION_R50_SE REUNION_R50_SW REUNION_R50_NW REUNION_R64_NE REUNION_R64_SE REUNION_R64_SW REUNION_R64_NW BOM_LAT BOM_LON BOM_TYPE BOM_WIND BOM_PRES BOM_TNUM BOM_CI BOM_RMW BOM_R34_NE BOM_R34_SE BOM_R34_SW BOM_R34_NW BOM_R50_NE BOM_R50_SE BOM_R50_SW BOM_R50_NW BOM_R64_NE BOM_R64_SE BOM_R64_SW BOM_R64_NW BOM_ROCI BOM_POCI BOM_EYE BOM_POS_METHOD BOM_PRES_METHOD NADI_LAT NADI_LON NADI_CAT NADI_WIND NADI_PRES WELLINGTON_LAT WELLINGTON_LON WELLINGTON_WIND WELLINGTON_PRES DS824_LAT DS824_LON DS824_STAGE DS824_WIND DS824_PRES TD9636_LAT TD9636_LON TD9636_STAGE TD9636_WIND TD9636_PRES TD9635_LAT TD9635_LON TD9635_WIND TD9635_PRES TD9635_ROCI NEUMANN_LAT NEUMANN_LON NEUMANN_CLASS NEUMANN_WIND NEUMANN_PRES MLC_LAT MLC_LON MLC_CLASS MLC_WIND MLC_PRES USA_GUST BOM_GUST BOM_GUST_PER REUNION_GUST REUNION_GUST_PER USA_SEAHGT USA_SEARAD_NE USA_SEARAD_SE USA_SEARAD_SW USA_SEARAD_NW STORM_SPEED STORM_DIR
1999135N12073 1999 32 NI AS NOT_NAMED 1999-05-15 00:00:00 NR 12.0000 72.5000 main 265 265 O_____________ jtwc_io IO021999 12.0000 72.5000 25 -1 1 27
1999135N12073 1999 32 NI AS NOT_NAMED 1999-05-15 03:00:00 NR 12.0500 72.5000 main 261 261 P_____________ IO021999 12.0500 72.5000 25 -1 1 0
1999135N12073 1999 32 NI AS NOT_NAMED 1999-05-15 06:00:00 NR 12.1000 72.5000 main 261 261 O_____________ jtwc_io IO021999 12.1000 72.5000 25 -1 1 0
1999135N12073 1999 32 NI AS NOT_NAMED 1999-05-15 09:00:00 NR 12.1500 72.5000 main 258 258 P_____________ IO021999 12.1500 72.5000 25 -1 1 0
1999135N12073 1999 32 NI AS NOT_NAMED 1999-05-15 12:00:00 NR 12.2000 72.5000 main 258 258 O_____________ jtwc_io IO021999 12.2000 72.5000 25 -1 1 0
1999135N12073 1999 32 NI AS NOT_NAMED 1999-05-15 15:00:00 NR 12.2500 72.5075 main 255 255 P_____________ IO021999 12.2500 72.5075 25 -1 1 0
1999135N12073 1999 32 NI AS NOT_NAMED 1999-05-15 18:00:00 NR 12.3000 72.5000 main 255 255 O_____________ jtwc_io IO021999 12.3000 72.5000 25 -1 1 343
1999135N12073 1999 32 NI AS NOT_NAMED 1999-05-15 21:00:00 NR 12.3425 72.4650 main 255 253 P_____________ IO021999 12.3425 72.4650 27 -1 1 317
1999135N12073 1999 32 NI AS NOT_NAMED 1999-05-16 00:00:00 NR 12.4000 72.4000 main 264 264 O_____________ jtwc_io IO021999 12.4000 72.4000 30 -1 2 315
1999135N12073 1999 32 NI AS NOT_NAMED 1999-05-16 03:00:00 NR 12.4700 72.3299 main 273 273 P_____________ IO021999 12.4700 72.3299 30 -1 3 316
1999135N12073 1999 32 NI AS NOT_NAMED 1999-05-16 06:00:00 NR 12.6000 72.2000 main 282 282 O_____________ jtwc_io IO021999 12.6000 72.2000 30 -1 5 316
1999135N12073 1999 32 NI AS NOT_NAMED 1999-05-16 09:00:00 NR 12.8125 71.9874 main 297 297 P_____________ IO021999 12.8125 71.9874 32 -1 6 312
1999135N12073 1999 32 NI AS NOT_NAMED 1999-05-16 12:00:00 NR 12.9800 71.7600 25 1000 newdelhi main 315 315 O___O_________ jtwc_io IO021999 13.1000 71.7000 35 0 12.5000 72.0000 D 25 1000 2.00000 4 6 309
1999135N12073 1999 32 NI AS NOT_NAMED 1999-05-16 15:00:00 NR 13.1900 71.5100 25 1000 newdelhi main 332 332 P___O_________ IO021999 13.4350 71.3650 35 0 12.7000 71.8000 D 25 1000 2.00000 4 7 312
1999135N12073 1999 32 NI AS NOT_NAMED 1999-05-16 18:00:00 NR 13.4143 71.2571 25 1000 newdelhi main 338 338 O___O_________ jtwc_io IO021999 13.8000 71.0000 35 0 12.9000 71.6000 DD 25 1000 2.00000 6 6 312
1999135N12073 1999 32 NI AS NOT_NAMED 1999-05-16 21:00:00 NR 13.5750 71.0712 30 998 newdelhi main 345 345 P___O_________ IO021999 14.1500 70.6424 40 0 13.0000 71.5000 DD 30 998 2.00000 8 8 315
1999135N12073 1999 32 NI AS NOT_NAMED 1999-05-17 00:00:00 NR 14.0000 70.6500 30 998 newdelhi main 365 365 O___O_________ jtwc_io IO021999 14.5000 70.3000 45 0 13.5000 71.0000 DD 30 998 2.00000 8 14 324
1999135N12073 1999 32 NI AS NOT_NAMED 1999-05-17 03:00:00 NR 14.6825 70.2462 35 996 newdelhi main 387 382 P___O_________ IO021999 14.8649 69.9924 55 0 14.5000 70.5000 CS 35 996 2.50000 10 14 325
1999135N12073 1999 32 NI AS NOT_NAMED 1999-05-17 06:00:00 NR 15.1000 69.8500 45 996 newdelhi main 396 406 O___O_________ jtwc_io IO021999 15.2000 69.7000 65 1 15.0000 70.0000 CS 45 996 3.00000 10 9 305
1999135N12073 1999 32 NI AS NOT_NAMED 1999-05-17 09:00:00 NR 15.2287 69.4462 55 992 newdelhi main 441 438 P___O_________ IO021999 15.4575 69.3924 67 1 15.0000 69.5000 SCS 55 992 3.50000 16 6 295
1999135N12073 1999 32 NI AS NOT_NAMED 1999-05-17 12:00:00 NR 15.3500 69.3000 64 984 newdelhi main 445 445 O___O_________ jtwc_io IO021999 15.7000 69.1000 70 1 15.0000 69.5000 VSCS 64 984 4.00000 20 7 315
1999135N12073 1999 32 NI AS NOT_NAMED 1999-05-17 15:00:00 NR 15.7387 68.9212 64 984 newdelhi main 478 476 P___O_________ IO021999 15.9774 68.8424 80 1 15.5000 69.0000 VSCS 64 984 4.00000 20 11 318
1999135N12073 1999 32 NI AS NOT_NAMED 1999-05-17 18:00:00 NR 16.1500 68.5500 64 984 newdelhi main 502 502 O___O_________ jtwc_io IO021999 16.3000 68.6000 90 2 16.0000 68.5000 VSCS 64 984 4.00000 20 8 321
1999135N12073 1999 32 NI AS NOT_NAMED 1999-05-17 21:00:00 NR 16.3387 68.4212 64 980 newdelhi main 520 506 P___O_________ IO021999 16.6775 68.3425 90 2 16.0000 68.5000 VSCS 64 980 4.00000 26 7 340
1999135N12073 1999 32 NI AS NOT_NAMED 1999-05-18 00:00:00 NR 16.8000 68.3000 80 976 newdelhi main 509 501 O___O_________ jtwc_io IO021999 17.1000 68.1000 90 2 16.5000 68.5000 VSCS 80 976 4.50000 30 12 323
1999135N12073 1999 32 NI AS NOT_NAMED 1999-05-18 03:00:00 NR 17.2712 67.6962 80 976 newdelhi main 498 440 P___O_________ IO021999 17.5425 67.8924 92 2 17.0000 67.5000 VSCS 80 976 4.50000 30 14 331
1999135N12073 1999 32 NI AS NOT_NAMED 1999-05-18 06:00:00 NR 18.0000 67.6000 90 964 newdelhi main 440 432 O___O_________ jtwc_io IO021999 18.0000 67.7000 95 2 18.0000 67.5000 VSCS 90 964 5.00000 40 9 350
1999135N12073 1999 32 NI AS NOT_NAMED 1999-05-18 09:00:00 NR 18.1325 67.5388 90 964 newdelhi main 438 397 P___O_________ IO021999 18.4650 67.4776 97 3 17.8000 67.6000 VSCS 90 964 5.00000 40 7 345
1999135N12073 1999 32 NI AS NOT_NAMED 1999-05-18 12:00:00 NR 18.7000 67.4000 105 950 newdelhi main 397 381 O___O_________ jtwc_io IO021999 18.9000 67.3000 100 3 18.5000 67.5000 VSCS 105 950 5.50000 52 8 347
1999135N12073 1999 32 NI AS NOT_NAMED 1999-05-18 15:00:00 NR 18.8787 67.3636 105 948 newdelhi main 381 350 P___O_________ IO021999 19.2575 67.2273 102 3 18.5000 67.5000 VSCS 105 948 5.50000 52 6 356
1999135N12073 1999 32 NI AS NOT_NAMED 1999-05-18 18:00:00 NR 19.3000 67.3500 105 948 newdelhi main 350 304 O___O_________ jtwc_io IO021999 19.6000 67.2000 105 3 19.0000 67.5000 VSCS 105 948 5.50000 54 11 358
1999135N12073 1999 32 NI AS NOT_NAMED 1999-05-18 21:00:00 NR 20.0000 67.3213 105 948 newdelhi main 304 269 P___O_________ IO021999 20.0000 67.1425 107 3 20.0000 67.5000 VSCS 105 948 5.50000 54 12 358
1999135N12073 1999 32 NI AS NOT_NAMED 1999-05-19 00:00:00 NR 20.4500 67.3000 105 948 newdelhi main 260 227 O___O_________ jtwc_io IO021999 20.4000 67.1000 110 3 20.5000 67.5000 VSCS 105 948 5.50000 54 9 358
1999135N12073 1999 32 NI AS NOT_NAMED 1999-05-19 03:00:00 NR 20.8787 67.2888 105 948 newdelhi main 227 220 P___O_________ IO021999 20.7575 67.0775 110 3 21.0000 67.5000 VSCS 105 948 5.50000 54 6 1
1999135N12073 1999 32 NI AS NOT_NAMED 1999-05-19 06:00:00 NR 21.0500 67.3000 105 948 newdelhi main 212 205 O___O_________ jtwc_io IO021999 21.1000 67.1000 110 3 21.0000 67.5000 VSCS 105 948 5.50000 54 4 8
1999135N12073 1999 32 NI AS NOT_NAMED 1999-05-19 09:00:00 NR 21.2250 67.3387 105 948 newdelhi main 205 173 P___O_________ IO021999 21.4500 67.1775 110 3 21.0000 67.5000 VSCS 105 948 5.50000 54 6 9
1999135N12073 1999 32 NI AS NOT_NAMED 1999-05-19 12:00:00 NR 21.6500 67.4000 105 946 newdelhi main 168 145 O___O_________ jtwc_io IO021999 21.8000 67.3000 110 3 21.5000 67.5000 VSCS 105 946 5.50000 54 9 8
1999135N12073 1999 32 NI AS NOT_NAMED 1999-05-19 15:00:00 NR 22.0788 67.4713 105 946 newdelhi main 145 137 P___O_________ IO021999 22.1575 67.4425 110 3 22.0000 67.5000 VSCS 105 946 5.50000 54 9 9
1999135N12073 1999 32 NI AS NOT_NAMED 1999-05-19 18:00:00 NR 22.5000 67.5500 105 946 newdelhi main 128 99 O___O_________ jtwc_io IO021999 22.5000 67.6000 110 3 22.5000 67.5000 VSCS 105 946 5.50000 54 8 10
1999135N12073 1999 32 NI AS NOT_NAMED 1999-05-19 21:00:00 NR 22.9075 67.6250 105 946 newdelhi main 99 67 P___O_________ IO021999 22.8150 67.7501 110 3 23.0000 67.5000 VSCS 105 946 5.50000 54 7 11
1999135N12073 1999 32 NI AS NOT_NAMED 1999-05-20 00:00:00 NR 23.2000 67.7000 105 946 newdelhi main 67 15 O___O_________ jtwc_io IO021999 23.1000 67.9000 110 3 23.3000 67.5000 VSCS 105 946 5.50000 56 8 49
1999135N12073 1999 32 NI AS NOT_NAMED 1999-05-20 03:00:00 NR 23.4325 68.2825 105 946 newdelhi main 15 0 P___O_________ IO021999 23.3650 68.0650 110 3 23.5000 68.5000 VSCS 105 946 5.50000 54 7 53
1999135N12073 1999 32 NI AS NOT_NAMED 1999-05-20 06:00:00 NR 23.6500 68.3500 105 946 newdelhi main 0 0 O___O_________ jtwc_io IO021999 23.6000 68.2000 110 3 23.7000 68.5000 VSCS 105 946 5.50000 52 5 355
1999135N12073 1999 32 NI AS NOT_NAMED 1999-05-20 09:00:00 NR 23.9538 68.2315 main 0 0 P___P_________ IO021999 23.8074 68.2427 105 3 24.1002 68.2202 VSCS 6 343
1999135N12073 1999 32 NI AS NOT_NAMED 1999-05-20 12:00:00 NR 24.2500 68.1500 newdelhi main 0 0 O___O_________ jtwc_io IO021999 24.0000 68.3000 100 3 24.5000 68.0000 VSCS 0.00000 5 16
1999135N12073 1999 32 NI AS NOT_NAMED 1999-05-20 15:00:00 NR 24.4227 68.3836 main 0 0 P___P_________ IO021999 24.2075 68.4774 100 3 24.6378 68.2897 VSCS 6 59
1999135N12073 1999 32 NI AS NOT_NAMED 1999-05-20 18:00:00 NR 24.5500 68.7000 newdelhi main 0 0 O___O_________ jtwc_io IO021999 24.4000 68.7000 100 3 24.7000 68.7000 VSCS 0.00000 6 58
1999135N12073 1999 32 NI AS NOT_NAMED 1999-05-20 21:00:00 NR 24.7156 68.9003 main 0 0 P___P_________ IO021999 24.5574 68.8926 95 2 24.8738 68.9079 VSCS 4 47
1999135N12073 1999 32 NI AS NOT_NAMED 1999-05-21 00:00:00 NR 24.8500 69.0500 newdelhi main 0 0 O___O_________ jtwc_io IO021999 24.7000 69.1000 90 2 25.0000 69.0000 SCS 0.00000 3 51
1999135N12073 1999 32 NI AS NOT_NAMED 1999-05-21 03:00:00 NR 24.9137 69.1676 newdelhi main 0 0 P___O_________ IO021999 24.8275 69.3352 77 1 25.0000 69.0000 CS 0.00000 5 72
1999135N12073 1999 32 NI AS NOT_NAMED 1999-05-21 06:00:00 NR 25.0000 69.5500 newdelhi main 0 0 O___O_________ jtwc_io IO021999 25.0000 69.6000 65 1 25.0000 69.5000 CS 0.00000 7 62
1999135N12073 1999 32 NI AS NOT_NAMED 1999-05-21 09:00:00 NR 25.2456 69.8504 main 0 0 P___P_________ IO021999 25.2925 69.8998 60 0 25.1986 69.8011 CS 7 42
1999135N12073 1999 32 NI AS NOT_NAMED 1999-05-21 12:00:00 NR 25.5429 70.0857 newdelhi main 0 0 O___O_________ jtwc_io IO021999 25.6000 70.2000 55 0 25.5000 70.0000 CS 0.00000 7 39
1999135N12073 1999 32 NI AS NOT_NAMED 1999-05-21 15:00:00 NR 25.7758 70.3209 main 0 0 P___P_________ IO021999 25.8275 70.4626 55 0 25.7500 70.2501 CS 6 42
1999135N12073 1999 32 NI AS NOT_NAMED 1999-05-21 18:00:00 NR 26.0000 70.5400 newdelhi main 0 0 O___O_________ jtwc_io IO021999 26.0000 70.7000 55 0 26.0000 70.5000 CS 0.00000 6 46
1999135N12073 1999 32 NI AS NOT_NAMED 1999-05-21 21:00:00 NR 26.1990 70.8011 main 0 0 ____P_________ IO021999 -1 26.1990 70.8011 CS 7 40
1999135N12073 1999 32 NI AS NOT_NAMED 1999-05-22 00:00:00 NR 26.5000 71.0000 newdelhi main 0 0 ____O_________ -1 26.5000 71.0000 CS 0.00000 8 12
1999135N12073 1999 32 NI AS NOT_NAMED 1999-05-22 03:00:00 NR 27.0000 71.0000 newdelhi main 0 0 ____O_________ -1 27.0000 71.0000 DD 0.00000 12 48
1999135N12073 1999 32 NI AS NOT_NAMED 1999-05-22 06:00:00 NR 27.3000 72.0000 newdelhi main 0 0 ____O_________ -1 27.3000 72.0000 DD 0.00000 13 70
1999135N12073 1999 32 NI AS NOT_NAMED 1999-05-22 09:00:00 NR 27.4376 72.3270 main 0 0 ____P_________ -1 27.4376 72.3270 DD 2 8
1999135N12073 1999 32 NI AS NOT_NAMED 1999-05-22 12:00:00 NR 27.5000 72.0000 newdelhi main 0 ____O_________ -1 27.5000 72.0000 D 0.00000 6 282

IBTrACS Databaseについて

本データベースは、米国NOAAが公開する1842年以降の世界の熱帯低気圧のベストトラックデータアーカイブInternational Best Track Archive for Climate Stewardship (IBTrACS)を、ウェブで閲覧しやすい形式に変換したものです。

最終更新日:2021-12-06